Time;durP1;ratioP1;P1;durP2;ratioP2;P2;SDS_P1;SDS_P2;PMS_P1;PMS_P2;Temp;Humidity;BMP_temperature;BMP_pressure;BME280_temperature;BME280_humidity;BME280_pressure;Samples;Min_cycle;Max_cycle;Signal;HPM_P1;HPM_P2
2024/01/10 00:02:03;;;;;;;13.65;8.03;;;;;;;-6.81;60.54;101177.33;1789500;79;21251;-83
2024/01/10 00:05:10;;;;;;;15.23;6.78;;;;;;;-6.79;60.90;101170.16;1795101;80;21303;-81
2024/01/10 00:08:16;;;;;;;14.73;8.38;;;;;;;-6.56;60.59;101161.48;1796022;80;21267;-81
2024/01/10 00:11:23;;;;;;;12.07;6.62;;;;;;;-6.36;59.96;101154.67;1794643;80;21860;-84
2024/01/10 00:14:29;;;;;;;14.68;7.22;;;;;;;-7.16;61.84;101173.02;1794559;80;21280;-82
2024/01/10 00:17:35;;;;;;;11.80;6.35;;;;;;;-7.33;62.77;101169.97;1795804;80;21276;-85
2024/01/10 00:20:41;;;;;;;10.75;5.58;;;;;;;-7.35;62.46;101162.48;1794674;80;21295;-85
2024/01/10 00:23:47;;;;;;;12.05;5.67;;;;;;;-7.06;62.00;101153.22;1796030;80;21816;-82
2024/01/10 00:26:53;;;;;;;9.63;5.60;;;;;;;-7.77;62.56;101155.61;1795877;80;21204;-82
2024/01/10 00:30:00;;;;;;;11.28;6.60;;;;;;;-7.64;63.29;101153.52;1794509;80;21287;-81
2024/01/10 00:33:06;;;;;;;13.98;7.10;;;;;;;-7.70;63.58;101152.36;1794336;80;21168;-81
2024/01/10 00:36:13;;;;;;;20.17;6.92;;;;;;;-7.53;63.61;101151.46;1792971;80;21249;-81
2024/01/10 00:39:20;;;;;;;13.58;7.00;;;;;;;-7.97;65.20;101142.85;1799498;79;21300;-85
2024/01/10 00:42:25;;;;;;;14.93;7.70;;;;;;;-7.34;64.28;101131.89;1785472;80;21906;-82
2024/01/10 00:45:30;;;;;;;13.75;7.35;;;;;;;-7.32;64.54;101123.41;1799908;80;21308;-82
2024/01/10 00:48:36;;;;;;;12.65;6.33;;;;;;;-7.10;64.44;101113.03;1783968;79;21871;-81
2024/01/10 00:51:42;;;;;;;12.40;6.58;;;;;;;-6.80;64.02;101110.36;1804882;79;21312;-85
2024/01/10 00:54:47;;;;;;;12.93;7.67;;;;;;;-6.68;64.18;101104.64;1783918;79;21298;-85
2024/01/10 00:57:54;;;;;;;15.08;7.35;;;;;;;-7.35;66.24;101110.19;1804919;79;21295;-85
2024/01/10 01:01:00;;;;;;;11.45;6.67;;;;;;;-7.11;66.70;101099.30;1784843;80;21298;-80
2024/01/10 01:04:07;;;;;;;10.18;6.85;;;;;;;-6.41;65.07;101091.38;1799559;80;21324;-81
2024/01/10 01:07:13;;;;;;;12.88;7.62;;;;;;;-6.81;66.18;101080.69;1785431;80;21270;-84
2024/01/10 01:10:20;;;;;;;11.08;7.17;;;;;;;-6.09;64.80;101077.87;1805197;79;21288;-85
2024/01/10 01:13:27;;;;;;;10.32;5.67;;;;;;;-5.50;63.49;101073.54;1784945;80;21329;-81
2024/01/10 01:16:33;;;;;;;12.20;6.75;;;;;;;-5.76;64.27;101064.27;1800709;79;21881;-82
2024/01/10 01:19:40;;;;;;;8.40;5.12;;;;;;;-4.73;62.20;101050.59;1790769;79;21297;-85
2024/01/10 01:22:46;;;;;;;10.72;5.30;;;;;;;-4.68;61.41;101049.95;1823748;78;21271;-84
2024/01/10 01:25:53;;;;;;;10.90;5.90;;;;;;;-4.64;61.28;101047.09;1791312;79;21921;-82
2024/01/10 01:28:59;;;;;;;10.75;6.33;;;;;;;-4.43;61.15;101039.99;1822741;78;21287;-85
2024/01/10 01:32:05;;;;;;;7.87;4.78;;;;;;;-4.21;61.01;101023.08;1790195;80;21902;-81
2024/01/10 01:35:12;;;;;;;8.18;4.55;;;;;;;-3.81;60.04;101019.56;1822736;78;21297;-81
2024/01/10 01:38:19;;;;;;;6.85;4.58;;;;;;;-3.80;59.78;101010.60;1790981;80;21263;-86
2024/01/10 01:41:24;;;;;;;12.05;4.80;;;;;;;-4.70;62.47;100999.77;1823031;78;21287;-81
2024/01/10 01:44:31;;;;;;;8.18;4.00;;;;;;;-3.98;62.08;100995.38;1790397;79;21274;-82
2024/01/10 01:47:38;;;;;;;7.10;4.40;;;;;;;-3.54;60.33;100985.34;1823582;78;21267;-85
2024/01/10 01:50:45;;;;;;;7.92;4.28;;;;;;;-3.47;60.31;100980.13;1789902;79;21297;-84
2024/01/10 01:53:52;;;;;;;7.55;4.35;;;;;;;-3.40;60.31;100984.71;1809076;78;21243;-80
2024/01/10 01:56:58;;;;;;;8.20;4.40;;;;;;;-3.43;60.89;100978.19;1785653;78;21244;-80
2024/01/10 02:00:04;;;;;;;9.10;4.33;;;;;;;-3.36;60.96;100977.81;1805783;78;21801;-84
2024/01/10 02:03:10;;;;;;;8.18;4.53;;;;;;;-3.16;60.92;100984.03;1806713;78;21804;-85
2024/01/10 02:06:17;;;;;;;6.90;4.15;;;;;;;-3.77;62.37;100973.02;1775247;80;21849;-85
2024/01/10 02:09:22;;;;;;;5.60;3.95;;;;;;;-3.40;63.04;100970.86;1804707;78;21253;-80
2024/01/10 02:12:28;;;;;;;6.60;4.12;;;;;;;-2.77;60.90;100964.33;1800237;78;21831;-80
2024/01/10 02:15:34;;;;;;;6.47;4.15;;;;;;;-2.53;60.16;100959.56;1802737;78;21278;-80
2024/01/10 02:18:42;;;;;;;6.30;4.05;;;;;;;-2.66;60.68;100945.91;1808097;78;21844;-81
2024/01/10 02:21:49;;;;;;;7.80;3.87;;;;;;;-2.76;61.24;100942.83;1805110;78;21260;-81
2024/01/10 02:25:00;;;;;;;5.75;4.10;;;;;;;-2.77;61.66;100928.18;1826585;77;21345;-81
2024/01/10 02:28:05;;;;;;;6.08;3.55;;;;;;;-2.91;62.13;100933.74;1790679;78;21226;-83
2024/01/10 02:31:11;;;;;;;7.97;4.55;;;;;;;-2.63;61.83;100925.67;1795711;78;21250;-85
2024/01/10 02:34:16;;;;;;;7.15;4.58;;;;;;;-2.53;61.77;100925.60;1776865;79;21285;-81
2024/01/10 02:37:22;;;;;;;8.28;4.00;;;;;;;-2.49;62.05;100922.27;1787836;78;21255;-83
2024/01/10 02:40:31;;;;;;;6.87;4.15;;;;;;;-2.73;62.99;100931.97;1823503;77;21252;-85
2024/01/10 02:43:37;;;;;;;8.25;5.05;;;;;;;-2.53;62.77;100922.92;1826921;77;21276;-86
2024/01/10 02:46:43;;;;;;;10.10;5.97;;;;;;;-2.61;63.16;100921.09;1797199;78;21242;-85
2024/01/10 02:49:48;;;;;;;9.20;5.47;;;;;;;-2.53;63.23;100920.24;1821811;77;21247;-81
2024/01/10 02:52:54;;;;;;;9.50;5.75;;;;;;;-2.67;63.85;100914.24;1789484;78;21250;-81
2024/01/10 02:56:03;;;;;;;12.82;7.25;;;;;;;-2.53;64.10;100901.49;1803711;78;21252;-81
2024/01/10 02:59:09;;;;;;;12.13;6.30;;;;;;;-2.52;64.21;100891.16;1796115;79;21132;-81
2024/01/10 03:02:16;;;;;;;17.98;8.55;;;;;;;-2.38;63.97;100881.94;1796874;78;21262;-85
2024/01/10 03:05:21;;;;;;;20.25;10.08;;;;;;;-2.71;64.88;100882.34;1793598;78;21271;-81
2024/01/10 03:08:28;;;;;;;21.23;9.35;;;;;;;-2.61;65.07;100876.42;1814667;77;21287;-84
2024/01/10 03:11:35;;;;;;;21.65;9.08;;;;;;;-2.38;64.21;100868.55;1792878;78;21253;-85
2024/01/10 03:14:41;;;;;;;22.93;10.00;;;;;;;-2.35;64.39;100867.53;1826850;77;21254;-81
2024/01/10 03:17:47;;;;;;;20.82;8.75;;;;;;;-2.25;64.13;100859.39;1806080;78;21291;-86
2024/01/10 03:20:54;;;;;;;27.87;11.35;;;;;;;-2.04;63.64;100850.66;1787753;78;21807;-83
2024/01/10 03:24:03;;;;;;;31.23;13.28;;;;;;;-2.00;63.78;100842.84;1828875;77;21850;-81
2024/01/10 03:27:09;;;;;;;38.92;13.85;;;;;;;-2.02;63.94;100842.08;1793506;78;21262;-85
2024/01/10 03:30:18;;;;;;;36.38;14.53;;;;;;;-2.00;64.28;100844.67;1810634;78;21780;-85
2024/01/10 03:33:24;;;;;;;39.20;13.45;;;;;;;-2.15;64.59;100831.62;1825754;77;21799;-81
2024/01/10 03:36:30;;;;;;;32.38;13.98;;;;;;;-2.33;65.47;100820.93;1812369;77;21234;-81
2024/01/10 03:39:36;;;;;;;41.13;13.83;;;;;;;-2.13;65.53;100814.97;1786320;78;21258;-80
2024/01/10 03:42:41;;;;;;;30.85;15.15;;;;;;;-1.87;64.92;100809.05;1814976;77;21822;-80
2024/01/10 03:45:46;;;;;;;33.13;12.45;;;;;;;-1.73;64.73;100800.24;1792837;80;21266;-85
2024/01/10 03:48:52;;;;;;;37.45;14.03;;;;;;;-1.66;64.33;100790.88;1759980;81;21141;-84
2024/01/10 03:51:58;;;;;;;33.18;13.10;;;;;;;-1.73;64.55;100794.02;1794237;80;21290;-86
2024/01/10 03:55:04;;;;;;;39.03;12.95;;;;;;;-1.83;65.07;100785.14;1793475;80;21289;-87
2024/01/10 03:58:10;;;;;;;25.30;11.60;;;;;;;-1.67;64.85;100778.91;1761447;81;21288;-87
2024/01/10 04:01:16;;;;;;;28.20;13.22;;;;;;;-1.52;64.45;100776.69;1793968;80;21310;-85
2024/01/10 04:04:23;;;;;;;25.88;12.88;;;;;;;-1.57;64.36;100779.63;1793104;80;21898;-85
2024/01/10 04:07:29;;;;;;;25.90;11.43;;;;;;;-1.53;64.66;100774.96;1760089;81;21219;-85
2024/01/10 04:10:35;;;;;;;28.17;10.08;;;;;;;-1.65;65.02;100776.52;1793001;80;21305;-85
2024/01/10 04:13:40;;;;;;;22.80;10.65;;;;;;;-1.58;65.10;100767.66;1760800;81;21307;-80
2024/01/10 04:16:48;;;;;;;17.12;10.25;;;;;;;-1.48;64.93;100763.97;1773637;80;21878;-85
2024/01/10 04:19:54;;;;;;;19.52;8.80;;;;;;;-1.41;64.95;100768.01;1791445;79;21282;-80
2024/01/10 04:23:00;;;;;;;17.70;9.78;;;;;;;-1.34;64.76;100772.94;1758446;81;21335;-85
2024/01/10 04:26:07;;;;;;;16.40;9.45;;;;;;;-1.26;64.76;100764.94;1791324;80;21262;-85
2024/01/10 04:29:15;;;;;;;16.73;9.70;;;;;;;-1.07;64.09;100754.84;1785955;79;21200;-85
2024/01/10 04:32:20;;;;;;;19.60;9.23;;;;;;;-1.07;64.43;100748.13;1789702;80;21355;-80
2024/01/10 04:35:26;;;;;;;16.95;8.35;;;;;;;-0.83;63.80;100761.89;1788010;79;21317;-80
2024/01/10 04:38:33;;;;;;;21.80;9.75;;;;;;;-0.76;63.69;100753.83;1777800;79;21258;-85
2024/01/10 04:41:39;;;;;;;15.13;8.63;;;;;;;-0.69;63.62;100746.28;1789489;78;21869;-80
2024/01/10 04:44:46;;;;;;;16.60;8.35;;;;;;;-0.68;63.55;100750.69;1776586;79;21273;-81
2024/01/10 04:47:52;;;;;;;12.88;7.65;;;;;;;-0.59;63.47;100759.53;1780796;80;21262;-80
2024/01/10 04:50:59;;;;;;;15.18;7.20;;;;;;;-0.55;63.40;100759.73;1776030;81;21305;-81
2024/01/10 04:54:05;;;;;;;13.98;6.50;;;;;;;-0.42;63.10;100755.81;1777312;81;21298;-81
2024/01/10 04:57:11;;;;;;;9.25;6.00;;;;;;;-0.37;63.13;100761.77;1780277;80;21307;-85
2024/01/10 05:00:18;;;;;;;14.40;7.42;;;;;;;-0.29;63.02;100774.23;1795133;79;21275;-85
2024/01/10 05:03:25;;;;;;;14.73;7.17;;;;;;;-0.37;63.05;100772.04;1781004;80;22135;-81
2024/01/10 05:06:30;;;;;;;11.90;6.10;;;;;;;-0.37;63.67;100767.14;1786483;79;21268;-85
2024/01/10 05:09:36;;;;;;;11.22;5.97;;;;;;;-0.39;63.99;100758.30;1785856;79;21279;-80
2024/01/10 05:12:42;;;;;;;10.90;6.40;;;;;;;-0.37;63.59;100749.19;1777128;81;21306;-85
2024/01/10 05:15:49;;;;;;;8.65;5.62;;;;;;;-0.28;63.39;100751.30;1782068;79;21674;-84
2024/01/10 05:18:56;;;;;;;11.73;5.95;;;;;;;-0.35;63.18;100747.25;1777455;79;21305;-85
2024/01/10 05:22:02;;;;;;;9.93;4.97;;;;;;;-0.35;63.58;100747.25;1783495;78;21284;-85
2024/01/10 05:25:08;;;;;;;7.25;4.28;;;;;;;-0.09;62.75;100743.42;1776469;80;21286;-85
2024/01/10 05:28:14;;;;;;;7.75;4.75;;;;;;;-0.37;63.65;100741.13;1808872;78;21279;-79
2024/01/10 05:31:20;;;;;;;6.05;4.10;;;;;;;-0.61;64.31;100741.28;1781418;78;21897;-85
2024/01/10 05:34:26;;;;;;;5.92;4.30;;;;;;;-0.28;63.76;100732.48;1811783;78;21840;-84
2024/01/10 05:37:32;;;;;;;4.90;3.77;;;;;;;-0.08;62.87;100731.20;1815197;77;21244;-85
2024/01/10 05:40:39;;;;;;;4.58;3.55;;;;;;;-0.21;63.41;100724.87;1776523;80;21810;-85
2024/01/10 05:43:45;;;;;;;5.92;3.75;;;;;;;-0.13;63.14;100724.41;1825023;78;21271;-85
2024/01/10 05:46:52;;;;;;;6.45;3.65;;;;;;;0.20;62.07;100717.33;1790659;80;21303;-80
2024/01/10 05:49:59;;;;;;;5.75;3.65;;;;;;;0.04;62.08;100725.99;1763607;80;21720;-85
2024/01/10 05:53:06;;;;;;;7.15;3.90;;;;;;;0.03;62.32;100723.78;1788987;80;21322;-84
2024/01/10 05:56:14;;;;;;;6.12;3.83;;;;;;;0.20;61.79;100724.91;1789351;80;21338;-85
2024/01/10 05:59:21;;;;;;;8.13;5.08;;;;;;;0.09;62.13;100727.41;1768846;80;21881;-85
2024/01/10 06:02:28;;;;;;;5.78;3.30;;;;;;;0.17;62.28;100733.66;1790442;80;21267;-79
2024/01/10 06:05:34;;;;;;;6.25;3.67;;;;;;;0.09;62.39;100731.45;1789146;80;21298;-82
2024/01/10 06:08:40;;;;;;;4.42;3.22;;;;;;;0.28;61.50;100718.15;1785359;80;21688;-87
2024/01/10 06:11:50;;;;;;;5.90;3.72;;;;;;;0.22;61.41;100718.94;1809751;78;21867;-82
2024/01/10 06:14:57;;;;;;;5.75;3.00;;;;;;;0.50;60.30;100705.01;1814277;78;21289;-82
2024/01/10 06:18:03;;;;;;;7.55;3.37;;;;;;;0.25;60.89;100709.81;1804352;78;21287;-83
2024/01/10 06:21:10;;;;;;;4.85;3.08;;;;;;;0.33;60.72;100718.70;1793226;78;21342;-81
2024/01/10 06:24:17;;;;;;;5.62;3.50;;;;;;;0.55;60.26;100717.67;1770260;79;21321;-87
2024/01/10 06:27:22;;;;;;;4.45;3.30;;;;;;;0.46;60.62;100715.11;1801835;78;21307;-87
2024/01/10 06:30:29;;;;;;;4.75;2.92;;;;;;;0.48;60.77;100723.10;1798616;79;21825;-80
2024/01/10 06:33:35;;;;;;;5.03;3.02;;;;;;;0.53;60.60;100716.06;1817825;78;21291;-81
2024/01/10 06:36:41;;;;;;;6.67;2.67;;;;;;;0.72;59.89;100714.72;1786335;80;21242;-81
2024/01/10 06:39:50;;;;;;;5.55;2.98;;;;;;;0.86;59.56;100710.23;1800223;78;21298;-86
2024/01/10 06:42:56;;;;;;;5.22;2.98;;;;;;;1.05;58.95;100709.34;1757600;80;21254;-83
2024/01/10 06:46:03;;;;;;;6.47;2.70;;;;;;;0.72;59.38;100721.45;1781272;79;21272;-80
2024/01/10 06:49:09;;;;;;;4.05;2.70;;;;;;;0.96;59.23;100723.45;1767276;80;21847;-83
2024/01/10 06:52:16;;;;;;;3.45;2.40;;;;;;;1.00;58.81;100734.40;1777183;79;21288;-85
2024/01/10 06:55:24;;;;;;;4.53;2.80;;;;;;;0.90;59.01;100726.08;1783243;79;21299;-86
2024/01/10 06:58:31;;;;;;;3.90;2.72;;;;;;;0.84;58.93;100721.58;1812703;78;21246;-80
2024/01/10 07:01:37;;;;;;;4.10;2.65;;;;;;;0.85;59.41;100724.19;1789971;80;21227;-86
2024/01/10 07:04:48;;;;;;;3.72;2.40;;;;;;;0.82;59.71;100714.09;1812456;78;21254;-86
2024/01/10 07:07:54;;;;;;;3.58;2.45;;;;;;;1.45;58.15;100715.98;1796648;77;21269;-86
2024/01/10 07:11:01;;;;;;;3.08;2.33;;;;;;;1.47;57.64;100715.41;1795917;78;21258;-82
2024/01/10 07:14:07;;;;;;;6.45;2.70;;;;;;;1.48;57.70;100717.12;1776910;80;21293;-79
2024/01/10 07:17:13;;;;;;;4.58;2.60;;;;;;;1.26;58.18;100717.27;1775052;78;21274;-86
2024/01/10 07:20:19;;;;;;;3.35;2.67;;;;;;;1.30;58.39;100718.42;1808324;77;21645;-80
2024/01/10 07:23:25;;;;;;;4.33;2.95;;;;;;;1.32;58.37;100720.51;1774272;79;21330;-80
2024/01/10 07:26:31;;;;;;;5.90;3.33;;;;;;;1.33;58.23;100727.65;1764558;80;21261;-82
2024/01/10 07:29:37;;;;;;;3.25;2.90;;;;;;;1.32;58.24;100720.51;1770511;79;21849;-79
2024/01/10 07:32:42;;;;;;;3.98;2.90;;;;;;;1.29;58.02;100717.56;1774074;79;21309;-79
2024/01/10 07:35:49;;;;;;;4.35;3.27;;;;;;;1.29;58.02;100720.25;1776701;79;21291;-86
2024/01/10 07:38:57;;;;;;;8.00;3.62;;;;;;;1.27;57.99;100727.11;1772500;80;21860;-86
2024/01/10 07:42:02;;;;;;;4.75;3.15;;;;;;;1.44;57.45;100731.30;1783824;79;21305;-86
2024/01/10 07:45:09;;;;;;;6.58;3.50;;;;;;;1.38;57.40;100732.23;1774749;79;21234;-86
2024/01/10 07:48:16;;;;;;;5.37;3.92;;;;;;;1.42;57.63;100729.70;1747746;80;21314;-85
2024/01/10 07:51:22;;;;;;;7.83;3.95;;;;;;;1.75;56.94;100721.91;1779562;79;21306;-80
2024/01/10 07:54:29;;;;;;;8.13;3.90;;;;;;;1.77;56.63;100721.30;1789071;78;21311;-79
2024/01/10 07:57:35;;;;;;;6.05;3.75;;;;;;;1.83;56.67;100722.69;1790273;79;21292;-86
2024/01/10 08:00:42;;;;;;;7.58;3.92;;;;;;;1.59;57.29;100723.10;1812020;79;21284;-81
2024/01/10 08:03:49;;;;;;;5.58;3.95;;;;;;;1.66;57.30;100730.66;1833623;77;21300;-78
2024/01/10 08:06:56;;;;;;;6.05;4.12;;;;;;;1.67;56.38;100724.28;1787440;79;21361;-80
2024/01/10 08:10:04;;;;;;;10.63;4.83;;;;;;;1.65;56.44;100728.08;1809098;77;21297;-80
2024/01/10 08:13:11;;;;;;;6.10;4.35;;;;;;;1.77;56.27;100721.30;1781045;79;21300;-81
2024/01/10 08:16:18;;;;;;;7.62;4.37;;;;;;;1.59;56.51;100721.27;1780183;79;21301;-85
2024/01/10 08:19:23;;;;;;;6.83;4.33;;;;;;;1.71;56.27;100711.45;1793356;79;21288;-80
2024/01/10 08:22:30;;;;;;;6.67;4.55;;;;;;;1.62;56.67;100710.77;1777125;79;21597;-85
2024/01/10 08:25:38;;;;;;;7.03;4.25;;;;;;;1.61;56.67;100711.25;1801904;77;21271;-86
2024/01/10 08:28:45;;;;;;;6.95;4.80;;;;;;;1.79;56.31;100703.69;1801068;77;21252;-85
2024/01/10 08:31:51;;;;;;;9.05;4.75;;;;;;;1.93;55.88;100705.35;1779211;80;21948;-81
2024/01/10 08:34:59;;;;;;;8.60;4.90;;;;;;;1.76;56.05;100707.45;1775275;80;21696;-85
2024/01/10 08:38:07;;;;;;;12.03;5.80;;;;;;;2.01;55.65;100692.17;1772651;80;21327;-79
2024/01/10 08:41:14;;;;;;;8.10;5.28;;;;;;;2.29;54.91;100695.91;1781891;80;21602;-86
2024/01/10 08:44:21;;;;;;;6.60;4.62;;;;;;;2.01;54.68;100684.94;1758711;80;21797;-86
2024/01/10 08:47:31;;;;;;;9.38;5.62;;;;;;;1.86;55.62;100680.67;1802591;78;21299;-86
2024/01/10 08:50:37;;;;;;;10.97;5.47;;;;;;;1.93;55.82;100686.02;1772044;80;21686;-85
2024/01/10 08:53:43;;;;;;;9.30;6.00;;;;;;;2.42;54.71;100680.16;1766502;80;21291;-86
2024/01/10 08:56:50;;;;;;;9.05;5.60;;;;;;;2.35;54.82;100686.48;1768655;79;21265;-79
2024/01/10 08:59:55;;;;;;;10.23;6.40;;;;;;;2.53;54.47;100681.55;1792300;79;21335;-79
2024/01/10 09:03:04;;;;;;;8.65;5.83;;;;;;;2.41;54.59;100686.54;1793673;79;21847;-79
2024/01/10 09:06:12;;;;;;;11.03;6.05;;;;;;;2.70;53.81;100687.89;1791611;79;21239;-79
2024/01/10 09:09:21;;;;;;;19.20;8.30;;;;;;;2.86;53.17;100688.92;1777253;80;21314;-85
2024/01/10 09:12:26;;;;;;;16.82;8.33;;;;;;;2.85;52.53;100691.26;1788917;78;21203;-85
2024/01/10 09:15:33;;;;;;;13.32;7.08;;;;;;;2.54;53.31;100682.80;1782190;79;21307;-85
2024/01/10 09:18:39;;;;;;;10.88;6.83;;;;;;;2.44;54.01;100676.84;1791742;79;21802;-80
2024/01/10 09:21:46;;;;;;;12.35;7.08;;;;;;;2.41;53.94;100678.44;1779832;79;21314;-80
2024/01/10 09:24:52;;;;;;;10.10;6.85;;;;;;;2.60;53.76;100681.47;1793402;79;21371;-80
2024/01/10 09:27:57;;;;;;;11.88;7.22;;;;;;;2.76;53.33;100664.95;1778335;79;21278;-85
2024/01/10 09:30:57;;;;;;;13.85;7.35;;;;;;;2.61;53.98;100666.98;1790583;79;21270;-85
2024/01/10 09:33:50;;;;;;;11.88;7.12;;;;;;;2.70;53.55;100667.63;1779588;79;21323;-85
2024/01/10 09:36:56;;;;;;;16.95;8.58;;;;;;;2.64;53.68;100668.61;1756390;80;21306;-86
2024/01/10 09:40:03;;;;;;;11.40;7.40;;;;;;;2.63;53.65;100662.31;1761840;80;21271;-79
2024/01/10 09:43:09;;;;;;;14.45;7.85;;;;;;;2.43;53.96;100670.58;1799916;78;21816;-79
2024/01/10 09:46:17;;;;;;;14.50;7.67;;;;;;;2.68;53.97;100672.77;1766630;80;21858;-85
2024/01/10 09:49:25;;;;;;;14.85;9.05;;;;;;;2.75;53.18;100674.89;1771325;80;21256;-79
2024/01/10 09:52:35;;;;;;;14.98;8.45;;;;;;;2.63;53.70;100677.17;1772890;80;21313;-84
2024/01/10 09:55:44;;;;;;;20.20;9.48;;;;;;;2.61;53.78;100662.08;1779145;79;21887;-79
2024/01/10 09:58:53;;;;;;;15.35;9.55;;;;;;;2.76;53.50;100664.45;1776575;79;21247;-86
2024/01/10 10:02:01;;;;;;;17.75;10.90;;;;;;;2.84;53.43;100660.31;1772710;80;21314;-84
2024/01/10 10:05:18;;;;;;;16.55;10.13;;;;;;;2.91;53.11;100664.25;1782275;79;21318;-85
2024/01/10 10:08:25;;;;;;;19.15;10.65;;;;;;;3.02;53.38;100672.41;1766029;79;21341;-85
2024/01/10 10:11:32;;;;;;;20.52;11.75;;;;;;;3.14;53.05;100673.28;1798823;79;21782;-85
2024/01/10 10:14:38;;;;;;;22.55;10.60;;;;;;;3.04;52.41;100673.13;1771324;79;21280;-86
2024/01/10 10:17:49;;;;;;;15.85;9.38;;;;;;;3.15;52.42;100670.45;1775823;79;21286;-86
2024/01/10 10:20:55;;;;;;;14.83;9.63;;;;;;;3.27;52.05;100669.49;1777253;79;21289;-85
2024/01/10 10:24:09;;;;;;;21.10;10.13;;;;;;;3.05;52.53;100669.45;1752336;79;22175;-79
2024/01/10 10:27:18;;;;;;;18.50;10.25;;;;;;;3.06;52.42;100667.14;1773592;80;21575;-85
2024/01/10 10:30:24;;;;;;;16.40;10.53;;;;;;;2.91;52.63;100674.56;1788233;78;21815;-79
2024/01/10 10:33:30;;;;;;;18.82;10.75;;;;;;;2.90;52.97;100688.20;1779472;78;21250;-86
2024/01/10 10:36:39;;;;;;;19.85;11.08;;;;;;;2.84;53.42;100684.14;1783653;79;21272;-80
2024/01/10 10:39:45;;;;;;;19.10;10.43;;;;;;;2.94;53.12;100683.80;1766556;79;21872;-80
2024/01/10 10:43:02;;;;;;;18.45;10.40;;;;;;;3.18;52.62;100688.28;1773814;79;21626;-86
2024/01/10 10:46:09;;;;;;;23.27;10.70;;;;;;;3.32;52.41;100691.63;1790317;79;21302;-85
2024/01/10 10:49:20;;;;;;;18.30;11.15;;;;;;;3.29;52.45;100693.23;1781312;79;21351;-86
2024/01/10 10:52:27;;;;;;;21.17;11.22;;;;;;;3.11;52.69;100693.31;1776777;79;21289;-87
2024/01/10 10:55:34;;;;;;;16.00;10.68;;;;;;;3.04;53.36;100692.05;1789538;79;21322;-80
2024/01/10 10:58:46;;;;;;;18.00;10.93;;;;;;;2.98;53.47;100689.34;1775381;79;21899;-84
2024/01/10 11:01:52;;;;;;;19.37;11.43;;;;;;;3.26;53.01;100694.81;1785593;79;21339;-85
2024/01/10 11:04:57;;;;;;;21.15;11.80;;;;;;;3.27;53.04;100697.02;1779582;79;21955;-80
2024/01/10 11:08:04;;;;;;;17.85;10.78;;;;;;;3.21;53.06;100692.97;1785553;79;21244;-86
2024/01/10 11:11:13;;;;;;;19.98;11.25;;;;;;;2.97;53.65;100702.49;1779942;79;21254;-80
2024/01/10 11:14:29;;;;;;;19.40;11.38;;;;;;;3.01;53.88;100699.92;1811561;78;21324;-80
2024/01/10 11:17:46;;;;;;;18.48;10.03;;;;;;;2.98;54.11;100717.72;1805471;77;21290;-86
2024/01/10 11:21:18;;;;;;;21.00;10.78;;;;;;;3.00;53.87;100724.34;1772984;80;21301;-86
2024/01/10 11:24:28;;;;;;;17.70;9.65;;;;;;;2.94;54.20;100711.31;1790079;78;21364;-86
2024/01/10 11:27:35;;;;;;;17.98;11.33;;;;;;;2.95;54.57;100710.33;1780789;78;21327;-85
2024/01/10 11:30:45;;;;;;;22.45;11.33;;;;;;;2.85;54.56;100717.42;1801291;79;21376;-79
2024/01/10 11:33:52;;;;;;;;;;;;;;;3.00;54.60;100708.13;1794118;79;21933;-87
2024/01/10 11:37:19;;;;;;;19.52;11.22;;;;;;;2.89;54.95;100706.27;1784929;79;20259;-80
2024/01/10 11:40:44;;;;;;;17.95;10.93;;;;;;;2.88;55.59;100707.74;1788226;79;21308;-86
2024/01/10 11:49:01;;;;;;;25.37;11.33;;;;;;;2.93;55.71;100701.49;1780076;79;21951;-79
2024/01/10 11:52:10;;;;;;;20.23;11.00;;;;;;;2.99;55.95;100723.98;1788557;79;21307;-78
2024/01/10 11:55:16;;;;;;;19.90;10.90;;;;;;;2.81;56.58;100711.37;1781254;79;21295;-80
2024/01/10 11:58:24;;;;;;;18.45;9.35;;;;;;;2.93;56.64;100721.76;1772406;79;21267;-79
2024/01/10 12:01:31;;;;;;;21.25;10.93;;;;;;;2.80;57.26;100721.33;1787266;79;21331;-79
2024/01/10 12:04:41;;;;;;;21.02;10.65;;;;;;;3.05;56.97;100723.50;1792208;78;21287;-79
2024/01/10 12:07:48;;;;;;;19.62;10.40;;;;;;;2.88;57.61;100715.84;1788973;78;21815;-84
2024/01/10 12:10:53;;;;;;;17.87;9.78;;;;;;;2.75;58.37;100711.36;1774903;80;21875;-84
2024/01/10 12:13:58;;;;;;;19.45;10.70;;;;;;;2.84;58.33;100719.27;1803244;77;21298;-79
2024/01/10 12:17:07;;;;;;;18.10;10.13;;;;;;;2.80;58.65;100721.33;1787428;80;21660;-79
2024/01/10 12:20:14;;;;;;;18.82;11.00;;;;;;;2.86;58.72;100715.08;1806321;77;21263;-86
2024/01/10 12:23:21;;;;;;;25.15;11.03;;;;;;;2.93;58.67;100723.11;1770771;80;21783;-79
2024/01/10 12:26:27;;;;;;;17.27;9.55;;;;;;;3.01;58.81;100729.66;1795844;78;22149;-79
2024/01/10 12:29:33;;;;;;;18.73;10.32;;;;;;;3.00;58.81;100718.45;1773167;78;21832;-80
2024/01/10 12:32:38;;;;;;;16.77;9.68;;;;;;;2.95;58.88;100726.05;1759818;79;21820;-79
2024/01/10 12:35:44;;;;;;;16.48;9.45;;;;;;;3.27;58.12;100723.56;1768129;79;21904;-80
2024/01/10 12:38:51;;;;;;;17.00;8.88;;;;;;;3.30;57.81;100736.00;1789258;78;21294;-86
2024/01/10 12:41:57;;;;;;;18.37;9.70;;;;;;;3.12;58.33;100742.34;1744257;80;21956;-86
2024/01/10 12:45:04;;;;;;;18.32;9.58;;;;;;;2.70;59.79;100750.52;1828440;77;21981;-79
2024/01/10 12:48:11;;;;;;;15.25;8.93;;;;;;;2.73;59.80;100740.81;1821747;78;21283;-79
2024/01/10 12:51:19;;;;;;;15.95;9.40;;;;;;;2.65;60.47;100741.41;1850405;77;21264;-80
2024/01/10 12:54:26;;;;;;;21.12;9.63;;;;;;;2.72;60.09;100744.00;1792708;78;21313;-79
2024/01/10 12:57:32;;;;;;;18.40;9.25;;;;;;;3.03;59.66;100753.84;1796208;78;21252;-79
2024/01/10 13:00:39;;;;;;;16.52;9.10;;;;;;;3.00;59.60;100741.91;1788221;80;21815;-80
2024/01/10 13:03:48;;;;;;;18.65;9.53;;;;;;;2.85;60.17;100741.24;1801672;78;21270;-80
2024/01/10 13:06:55;;;;;;;20.65;9.93;;;;;;;2.92;59.89;100743.87;1789807;77;21284;-80
2024/01/10 13:10:02;;;;;;;18.48;9.63;;;;;;;2.86;60.02;100736.70;1807714;78;21293;-81
2024/01/10 13:13:08;;;;;;;19.62;9.58;;;;;;;2.85;60.33;100743.95;1811512;78;21862;-86
2024/01/10 13:16:14;;;;;;;17.48;9.55;;;;;;;2.86;60.60;100742.10;1776926;79;21927;-86
2024/01/10 13:19:08;;;;;;;20.30;9.35;;;;;;;3.10;60.05;100748.33;1760899;80;21843;-86
2024/01/10 13:22:15;;;;;;;18.80;9.90;;;;;;;3.14;59.70;100744.91;1774366;79;22182;-86
2024/01/10 13:25:23;;;;;;;20.95;9.90;;;;;;;3.15;59.62;100746.13;1757158;81;21301;-86
2024/01/10 13:28:29;;;;;;;24.52;11.97;;;;;;;3.04;59.81;100747.45;1794030;77;21275;-77
2024/01/10 13:31:36;;;;;;;18.98;10.75;;;;;;;3.24;59.55;100748.13;1788610;79;21274;-86
2024/01/10 13:34:41;;;;;;;25.85;12.23;;;;;;;3.00;60.19;100748.67;1788951;79;21365;-81
2024/01/10 13:37:47;;;;;;;24.27;12.05;;;;;;;3.14;59.86;100741.72;1789729;78;21261;-80
2024/01/10 13:40:53;;;;;;;21.85;11.50;;;;;;;3.18;59.67;100751.81;1795485;78;21814;-87
2024/01/10 13:43:59;;;;;;;22.55;11.88;;;;;;;3.22;59.26;100756.86;1811271;78;21305;-87
2024/01/10 13:47:06;;;;;;;26.80;11.25;;;;;;;3.13;59.63;100757.56;1784059;78;21250;-80
2024/01/10 13:50:14;;;;;;;21.65;11.57;;;;;;;2.90;60.26;100761.16;1804208;78;21863;-79
2024/01/10 13:53:19;;;;;;;26.80;12.47;;;;;;;2.78;60.55;100756.21;1818890;78;21291;-80
2024/01/10 13:56:27;;;;;;;22.42;11.97;;;;;;;2.56;61.64;100758.30;1763039;80;21304;-85
2024/01/10 13:59:33;;;;;;;25.40;11.85;;;;;;;2.81;60.93;100763.57;1772848;80;21903;-79
2024/01/10 14:02:40;;;;;;;29.07;14.35;;;;;;;2.87;60.69;100762.73;1801579;79;21280;-79
2024/01/10 14:05:47;;;;;;;39.40;16.77;;;;;;;2.67;61.40;100762.89;1756786;81;21928;-79
2024/01/10 14:08:54;;;;;;;26.05;13.15;;;;;;;2.41;61.91;100774.29;1786703;79;21310;-80
2024/01/10 14:12:11;;;;;;;25.30;12.70;;;;;;;2.57;62.08;100766.77;1785736;78;21310;-85
2024/01/10 14:15:18;;;;;;;22.95;11.33;;;;;;;2.53;62.41;100771.52;1809667;77;21358;-79
2024/01/10 14:18:25;;;;;;;26.45;13.65;;;;;;;2.90;61.15;100770.13;1775283;80;21918;-79
2024/01/10 14:21:32;;;;;;;24.23;12.75;;;;;;;2.97;60.78;100775.45;1783440;77;21273;-80
2024/01/10 14:24:38;;;;;;;28.35;12.45;;;;;;;2.72;60.74;100783.66;1805819;78;21259;-79
2024/01/10 14:27:46;;;;;;;24.98;12.88;;;;;;;2.48;62.26;100785.00;1797673;78;21330;-80
2024/01/10 14:30:55;;;;;;;;;;;;;;;2.54;62.35;100787.23;1768369;80;22203;-86